sensor_id;sensor_type;location;lat;lon;timestamp;temperature;humidity
70928;SHT31;58587;53.034;18.576;2024-03-23T00:55:03;9.04;93.56
70928;SHT31;58587;53.034;18.576;2024-03-23T00:57:28;8.97;93.57
70928;SHT31;58587;53.034;18.576;2024-03-23T00:59:54;8.98;93.86
70928;SHT31;58587;53.034;18.576;2024-03-23T01:02:19;8.94;93.80
70928;SHT31;58587;53.034;18.576;2024-03-23T01:04:45;8.87;93.96
70928;SHT31;58587;53.034;18.576;2024-03-23T01:07:10;8.83;94.30
70928;SHT31;58587;53.034;18.576;2024-03-23T01:09:35;8.87;94.28
70928;SHT31;58587;53.034;18.576;2024-03-23T01:12:04;8.80;93.96
70928;SHT31;58587;53.034;18.576;2024-03-23T01:14:29;8.77;94.07
70928;SHT31;58587;53.034;18.576;2024-03-23T01:16:55;8.71;94.34
70928;SHT31;58587;53.034;18.576;2024-03-23T01:19:20;8.73;93.98
70928;SHT31;58587;53.034;18.576;2024-03-23T01:21:45;8.70;94.11
70928;SHT31;58587;53.034;18.576;2024-03-23T01:24:11;8.71;94.30
70928;SHT31;58587;53.034;18.576;2024-03-23T01:26:36;8.70;94.50
70928;SHT31;58587;53.034;18.576;2024-03-23T01:29:02;8.68;94.59
70928;SHT31;58587;53.034;18.576;2024-03-23T01:31:27;8.66;94.79
70928;SHT31;58587;53.034;18.576;2024-03-23T01:33:53;8.66;94.72
70928;SHT31;58587;53.034;18.576;2024-03-23T01:36:18;8.66;94.78
70928;SHT31;58587;53.034;18.576;2024-03-23T01:38:43;8.60;94.79
70928;SHT31;58587;53.034;18.576;2024-03-23T01:41:09;8.61;94.84
70928;SHT31;58587;53.034;18.576;2024-03-23T01:43:34;8.60;94.76
70928;SHT31;58587;53.034;18.576;2024-03-23T01:45:59;8.54;94.53
70928;SHT31;58587;53.034;18.576;2024-03-23T01:48:25;8.50;94.59
70928;SHT31;58587;53.034;18.576;2024-03-23T01:50:51;8.54;94.65
70928;SHT31;58587;53.034;18.576;2024-03-23T01:53:16;8.47;94.39
70928;SHT31;58587;53.034;18.576;2024-03-23T01:55:47;8.53;94.53
70928;SHT31;58587;53.034;18.576;2024-03-23T01:58:13;8.49;94.59
70928;SHT31;58587;53.034;18.576;2024-03-23T02:00:38;8.46;94.61
70928;SHT31;58587;53.034;18.576;2024-03-23T02:03:22;8.46;94.63
70928;SHT31;58587;53.034;18.576;2024-03-23T02:05:48;8.42;94.69
70928;SHT31;58587;53.034;18.576;2024-03-23T02:08:13;8.42;94.67
70928;SHT31;58587;53.034;18.576;2024-03-23T02:10:39;8.42;94.66
70928;SHT31;58587;53.034;18.576;2024-03-23T02:13:05;8.40;94.80
70928;SHT31;58587;53.034;18.576;2024-03-23T02:15:30;8.40;94.67
70928;SHT31;58587;53.034;18.576;2024-03-23T02:17:55;8.32;94.50
70928;SHT31;58587;53.034;18.576;2024-03-23T02:20:21;8.33;94.52
70928;SHT31;58587;53.034;18.576;2024-03-23T02:22:46;8.30;94.54
70928;SHT31;58587;53.034;18.576;2024-03-23T02:25:11;8.29;94.47
70928;SHT31;58587;53.034;18.576;2024-03-23T02:27:36;8.25;94.50
70928;SHT31;58587;53.034;18.576;2024-03-23T02:30:04;8.28;94.44
70928;SHT31;58587;53.034;18.576;2024-03-23T02:32:30;8.29;94.37
70928;SHT31;58587;53.034;18.576;2024-03-23T02:34:55;8.26;94.54
70928;SHT31;58587;53.034;18.576;2024-03-23T02:37:20;8.25;94.80
70928;SHT31;58587;53.034;18.576;2024-03-23T02:39:46;8.23;94.77
70928;SHT31;58587;53.034;18.576;2024-03-23T02:42:11;8.22;94.63
70928;SHT31;58587;53.034;18.576;2024-03-23T02:44:36;8.22;94.71
70928;SHT31;58587;53.034;18.576;2024-03-23T02:47:02;8.21;94.82
70928;SHT31;58587;53.034;18.576;2024-03-23T02:49:27;8.23;94.81
70928;SHT31;58587;53.034;18.576;2024-03-23T02:51:53;8.21;94.81
70928;SHT31;58587;53.034;18.576;2024-03-23T02:54:18;8.22;94.85
70928;SHT31;58587;53.034;18.576;2024-03-23T02:56:43;8.16;94.76
70928;SHT31;58587;53.034;18.576;2024-03-23T02:59:09;8.13;95.11
70928;SHT31;58587;53.034;18.576;2024-03-23T03:01:34;8.16;95.02
70928;SHT31;58587;53.034;18.576;2024-03-23T03:04:00;8.16;94.81
70928;SHT31;58587;53.034;18.576;2024-03-23T03:06:26;8.16;94.80
70928;SHT31;58587;53.034;18.576;2024-03-23T03:08:51;8.14;95.26
70928;SHT31;58587;53.034;18.576;2024-03-23T03:11:16;8.16;95.11
70928;SHT31;58587;53.034;18.576;2024-03-23T03:13:42;8.14;95.30
70928;SHT31;58587;53.034;18.576;2024-03-23T03:16:11;8.14;95.37
70928;SHT31;58587;53.034;18.576;2024-03-23T03:18:37;8.10;95.00
70928;SHT31;58587;53.034;18.576;2024-03-23T03:21:03;8.09;95.00
70928;SHT31;58587;53.034;18.576;2024-03-23T03:23:30;8.09;95.03
70928;SHT31;58587;53.034;18.576;2024-03-23T03:25:55;8.09;95.04
70928;SHT31;58587;53.034;18.576;2024-03-23T03:28:21;8.07;95.10
70928;SHT31;58587;53.034;18.576;2024-03-23T03:30:46;8.10;95.02
70928;SHT31;58587;53.034;18.576;2024-03-23T03:33:11;8.10;95.11
70928;SHT31;58587;53.034;18.576;2024-03-23T03:35:37;8.10;95.01
70928;SHT31;58587;53.034;18.576;2024-03-23T03:38:04;8.10;95.02
70928;SHT31;58587;53.034;18.576;2024-03-23T03:40:29;8.09;94.91
70928;SHT31;58587;53.034;18.576;2024-03-23T03:42:55;8.06;95.22
70928;SHT31;58587;53.034;18.576;2024-03-23T03:45:21;7.99;95.52
70928;SHT31;58587;53.034;18.576;2024-03-23T03:47:46;7.99;95.41
70928;SHT31;58587;53.034;18.576;2024-03-23T03:50:11;8.02;95.44
70928;SHT31;58587;53.034;18.576;2024-03-23T03:52:36;7.96;95.60
70928;SHT31;58587;53.034;18.576;2024-03-23T03:55:02;8.01;95.65
70928;SHT31;58587;53.034;18.576;2024-03-23T03:57:28;8.02;95.60
70928;SHT31;58587;53.034;18.576;2024-03-23T03:59:54;7.96;95.52
70928;SHT31;58587;53.034;18.576;2024-03-23T04:02:19;7.95;95.68
70928;SHT31;58587;53.034;18.576;2024-03-23T04:04:45;7.98;95.73
70928;SHT31;58587;53.034;18.576;2024-03-23T04:07:10;7.99;95.72
70928;SHT31;58587;53.034;18.576;2024-03-23T04:09:35;7.99;95.60
70928;SHT31;58587;53.034;18.576;2024-03-23T04:12:01;7.99;95.59
70928;SHT31;58587;53.034;18.576;2024-03-23T04:14:26;7.99;95.65
70928;SHT31;58587;53.034;18.576;2024-03-23T04:16:51;7.98;95.74
70928;SHT31;58587;53.034;18.576;2024-03-23T04:19:17;7.96;95.77
70928;SHT31;58587;53.034;18.576;2024-03-23T04:21:42;7.92;95.74
70928;SHT31;58587;53.034;18.576;2024-03-23T04:24:07;7.93;95.66
70928;SHT31;58587;53.034;18.576;2024-03-23T04:26:43;7.88;95.46
70928;SHT31;58587;53.034;18.576;2024-03-23T04:29:08;7.92;95.85
70928;SHT31;58587;53.034;18.576;2024-03-23T04:31:34;7.91;95.79
70928;SHT31;58587;53.034;18.576;2024-03-23T04:34:01;7.91;95.87
70928;SHT31;58587;53.034;18.576;2024-03-23T04:36:26;7.86;95.98
70928;SHT31;58587;53.034;18.576;2024-03-23T04:38:51;7.86;96.11
70928;SHT31;58587;53.034;18.576;2024-03-23T04:41:17;7.88;95.92
70928;SHT31;58587;53.034;18.576;2024-03-23T04:43:43;7.86;95.75
70928;SHT31;58587;53.034;18.576;2024-03-23T04:46:08;7.82;95.95
70928;SHT31;58587;53.034;18.576;2024-03-23T04:48:34;7.83;95.83
70928;SHT31;58587;53.034;18.576;2024-03-23T04:50:59;7.85;95.74
70928;SHT31;58587;53.034;18.576;2024-03-23T04:53:24;7.83;95.91
70928;SHT31;58587;53.034;18.576;2024-03-23T04:55:54;7.85;95.70
70928;SHT31;58587;53.034;18.576;2024-03-23T04:58:20;7.85;95.81
70928;SHT31;58587;53.034;18.576;2024-03-23T05:00:45;7.88;95.94
70928;SHT31;58587;53.034;18.576;2024-03-23T05:03:10;7.86;95.89
70928;SHT31;58587;53.034;18.576;2024-03-23T05:05:36;7.81;95.79
70928;SHT31;58587;53.034;18.576;2024-03-23T05:08:01;7.81;95.93
70928;SHT31;58587;53.034;18.576;2024-03-23T05:10:26;7.78;95.71
70928;SHT31;58587;53.034;18.576;2024-03-23T05:12:52;7.82;95.91
70928;SHT31;58587;53.034;18.576;2024-03-23T05:15:17;7.82;95.82
70928;SHT31;58587;53.034;18.576;2024-03-23T05:17:43;7.82;95.79
70928;SHT31;58587;53.034;18.576;2024-03-23T05:20:08;7.79;95.62
70928;SHT31;58587;53.034;18.576;2024-03-23T05:22:36;7.82;95.69
70928;SHT31;58587;53.034;18.576;2024-03-23T05:25:02;7.77;95.91
70928;SHT31;58587;53.034;18.576;2024-03-23T05:27:30;7.77;96.02
70928;SHT31;58587;53.034;18.576;2024-03-23T05:29:55;7.81;96.03
70928;SHT31;58587;53.034;18.576;2024-03-23T05:32:20;7.77;95.83
70928;SHT31;58587;53.034;18.576;2024-03-23T05:34:45;7.81;95.95
70928;SHT31;58587;53.034;18.576;2024-03-23T05:37:11;7.81;95.96
70928;SHT31;58587;53.034;18.576;2024-03-23T05:39:36;7.82;95.95
70928;SHT31;58587;53.034;18.576;2024-03-23T05:42:01;7.81;95.95
70928;SHT31;58587;53.034;18.576;2024-03-23T05:44:27;7.79;95.90
70928;SHT31;58587;53.034;18.576;2024-03-23T05:46:52;7.79;95.87
70928;SHT31;58587;53.034;18.576;2024-03-23T05:49:18;7.83;95.88
70928;SHT31;58587;53.034;18.576;2024-03-23T05:51:43;7.83;95.98
70928;SHT31;58587;53.034;18.576;2024-03-23T05:54:09;7.86;95.86
70928;SHT31;58587;53.034;18.576;2024-03-23T05:56:34;7.86;95.86
70928;SHT31;58587;53.034;18.576;2024-03-23T05:59:00;7.86;95.84
70928;SHT31;58587;53.034;18.576;2024-03-23T06:01:25;7.86;95.96
70928;SHT31;58587;53.034;18.576;2024-03-23T06:03:54;7.85;95.88
70928;SHT31;58587;53.034;18.576;2024-03-23T06:06:19;7.86;95.90
70928;SHT31;58587;53.034;18.576;2024-03-23T06:08:44;7.88;96.13
70928;SHT31;58587;53.034;18.576;2024-03-23T06:11:10;7.89;95.87
70928;SHT31;58587;53.034;18.576;2024-03-23T06:13:35;7.93;95.82
70928;SHT31;58587;53.034;18.576;2024-03-23T06:16:04;7.93;95.79
70928;SHT31;58587;53.034;18.576;2024-03-23T06:18:29;7.92;95.85
70928;SHT31;58587;53.034;18.576;2024-03-23T06:20:54;7.92;95.86
70928;SHT31;58587;53.034;18.576;2024-03-23T06:23:20;7.86;94.68
70928;SHT31;58587;53.034;18.576;2024-03-23T06:25:46;7.85;94.42
70928;SHT31;58587;53.034;18.576;2024-03-23T06:28:11;7.86;93.69
70928;SHT31;58587;53.034;18.576;2024-03-23T06:30:37;7.92;94.51
70928;SHT31;58587;53.034;18.576;2024-03-23T06:33:02;7.95;94.67
70928;SHT31;58587;53.034;18.576;2024-03-23T06:35:28;7.98;94.63
70928;SHT31;58587;53.034;18.576;2024-03-23T06:37:53;8.01;94.11
70928;SHT31;58587;53.034;18.576;2024-03-23T06:40:18;8.01;94.23
70928;SHT31;58587;53.034;18.576;2024-03-23T06:42:44;8.07;94.02
70928;SHT31;58587;53.034;18.576;2024-03-23T06:45:09;8.10;93.75
70928;SHT31;58587;53.034;18.576;2024-03-23T06:47:35;8.12;94.02
70928;SHT31;58587;53.034;18.576;2024-03-23T06:50:01;8.16;94.04
70928;SHT31;58587;53.034;18.576;2024-03-23T06:52:30;8.22;94.02
70928;SHT31;58587;53.034;18.576;2024-03-23T06:54:55;8.22;93.96
70928;SHT31;58587;53.034;18.576;2024-03-23T06:57:21;8.22;94.33
70928;SHT31;58587;53.034;18.576;2024-03-23T06:59:46;8.22;94.37
70928;SHT31;58587;53.034;18.576;2024-03-23T07:02:12;8.16;94.12
70928;SHT31;58587;53.034;18.576;2024-03-23T07:04:37;8.13;94.05
70928;SHT31;58587;53.034;18.576;2024-03-23T07:07:04;8.09;93.91
70928;SHT31;58587;53.034;18.576;2024-03-23T07:09:30;8.07;94.13
70928;SHT31;58587;53.034;18.576;2024-03-23T07:11:58;8.09;94.12
70928;SHT31;58587;53.034;18.576;2024-03-23T07:14:24;8.09;94.02
70928;SHT31;58587;53.034;18.576;2024-03-23T07:16:50;8.09;94.00
70928;SHT31;58587;53.034;18.576;2024-03-23T07:19:16;8.05;93.77
70928;SHT31;58587;53.034;18.576;2024-03-23T07:21:42;8.03;94.01
70928;SHT31;58587;53.034;18.576;2024-03-23T07:24:07;8.03;93.99
70928;SHT31;58587;53.034;18.576;2024-03-23T07:26:33;8.09;94.47
70928;SHT31;58587;53.034;18.576;2024-03-23T07:28:58;8.14;94.44
70928;SHT31;58587;53.034;18.576;2024-03-23T07:31:23;8.21;94.61
70928;SHT31;58587;53.034;18.576;2024-03-23T07:33:50;8.19;94.21
70928;SHT31;58587;53.034;18.576;2024-03-23T07:36:16;8.13;93.56
70928;SHT31;58587;53.034;18.576;2024-03-23T07:38:42;8.14;93.39
70928;SHT31;58587;53.034;18.576;2024-03-23T07:41:09;8.19;94.04
70928;SHT31;58587;53.034;18.576;2024-03-23T07:43:38;8.25;93.70
70928;SHT31;58587;53.034;18.576;2024-03-23T07:46:04;8.33;94.08
70928;SHT31;58587;53.034;18.576;2024-03-23T07:48:30;8.40;94.11
70928;SHT31;58587;53.034;18.576;2024-03-23T07:53:30;8.47;93.62
70928;SHT31;58587;53.034;18.576;2024-03-23T07:55:57;8.49;93.56
70928;SHT31;58587;53.034;18.576;2024-03-23T07:58:23;8.53;93.19
70928;SHT31;58587;53.034;18.576;2024-03-23T08:00:48;8.56;93.18
70928;SHT31;58587;53.034;18.576;2024-03-23T08:03:13;8.60;93.25
70928;SHT31;58587;53.034;18.576;2024-03-23T08:05:39;8.67;92.89
70928;SHT31;58587;53.034;18.576;2024-03-23T08:08:05;8.64;93.01
70928;SHT31;58587;53.034;18.576;2024-03-23T08:10:30;8.57;92.85
70928;SHT31;58587;53.034;18.576;2024-03-23T08:12:55;8.52;92.72
70928;SHT31;58587;53.034;18.576;2024-03-23T08:15:21;8.43;92.88
70928;SHT31;58587;53.034;18.576;2024-03-23T08:17:46;8.34;92.83
70928;SHT31;58587;53.034;18.576;2024-03-23T08:20:12;8.29;92.99
70928;SHT31;58587;53.034;18.576;2024-03-23T08:22:37;8.30;92.93
70928;SHT31;58587;53.034;18.576;2024-03-23T08:25:02;8.21;92.52
70928;SHT31;58587;53.034;18.576;2024-03-23T08:27:28;8.19;92.73
70928;SHT31;58587;53.034;18.576;2024-03-23T08:29:53;8.13;92.36
70928;SHT31;58587;53.034;18.576;2024-03-23T08:32:18;8.06;92.39
70928;SHT31;58587;53.034;18.576;2024-03-23T08:34:45;8.03;92.51
70928;SHT31;58587;53.034;18.576;2024-03-23T08:37:10;8.02;92.80
70928;SHT31;58587;53.034;18.576;2024-03-23T08:39:35;8.03;93.51
70928;SHT31;58587;53.034;18.576;2024-03-23T08:42:01;8.13;93.78
70928;SHT31;58587;53.034;18.576;2024-03-23T08:44:26;8.14;93.66
70928;SHT31;58587;53.034;18.576;2024-03-23T08:46:51;8.06;92.73
70928;SHT31;58587;53.034;18.576;2024-03-23T08:49:17;8.12;92.84
70928;SHT31;58587;53.034;18.576;2024-03-23T08:51:43;8.10;92.70
70928;SHT31;58587;53.034;18.576;2024-03-23T08:54:08;8.05;92.30
70928;SHT31;58587;53.034;18.576;2024-03-23T08:56:34;8.09;92.66
70928;SHT31;58587;53.034;18.576;2024-03-23T08:58:59;8.07;92.89
70928;SHT31;58587;53.034;18.576;2024-03-23T09:01:24;8.05;92.96
70928;SHT31;58587;53.034;18.576;2024-03-23T09:03:50;8.14;93.27
70928;SHT31;58587;53.034;18.576;2024-03-23T09:06:15;8.12;92.79
70928;SHT31;58587;53.034;18.576;2024-03-23T09:08:42;8.21;92.91
70928;SHT31;58587;53.034;18.576;2024-03-23T09:11:09;8.25;92.78
70928;SHT31;58587;53.034;18.576;2024-03-23T09:13:36;8.26;92.29
70928;SHT31;58587;53.034;18.576;2024-03-23T09:16:01;8.25;92.17
70928;SHT31;58587;53.034;18.576;2024-03-23T09:18:27;8.22;91.70
70928;SHT31;58587;53.034;18.576;2024-03-23T09:20:52;8.25;91.73
70928;SHT31;58587;53.034;18.576;2024-03-23T09:23:22;8.21;91.53
70928;SHT31;58587;53.034;18.576;2024-03-23T09:25:48;8.22;90.85
70928;SHT31;58587;53.034;18.576;2024-03-23T09:28:13;8.21;91.07
70928;SHT31;58587;53.034;18.576;2024-03-23T09:30:39;8.26;91.15
70928;SHT31;58587;53.034;18.576;2024-03-23T09:33:10;8.30;91.28
70928;SHT31;58587;53.034;18.576;2024-03-23T09:35:40;8.33;91.61
70928;SHT31;58587;53.034;18.576;2024-03-23T09:38:06;8.29;91.50
70928;SHT31;58587;53.034;18.576;2024-03-23T09:40:33;8.28;91.20
70928;SHT31;58587;53.034;18.576;2024-03-23T09:42:58;8.32;91.74
70928;SHT31;58587;53.034;18.576;2024-03-23T09:45:28;8.21;89.90
70928;SHT31;58587;53.034;18.576;2024-03-23T09:47:55;8.21;90.64
70928;SHT31;58587;53.034;18.576;2024-03-23T09:50:20;8.19;91.02
70928;SHT31;58587;53.034;18.576;2024-03-23T09:52:46;8.13;91.08
70928;SHT31;58587;53.034;18.576;2024-03-23T09:55:11;8.13;91.18
70928;SHT31;58587;53.034;18.576;2024-03-23T09:57:37;8.12;91.63
70928;SHT31;58587;53.034;18.576;2024-03-23T10:00:03;8.09;91.67
70928;SHT31;58587;53.034;18.576;2024-03-23T10:02:29;8.06;91.79
70928;SHT31;58587;53.034;18.576;2024-03-23T10:04:55;8.01;91.86
70928;SHT31;58587;53.034;18.576;2024-03-23T10:07:21;7.98;92.24
70928;SHT31;58587;53.034;18.576;2024-03-23T10:09:49;8.02;91.96
70928;SHT31;58587;53.034;18.576;2024-03-23T10:12:18;7.98;91.92
70928;SHT31;58587;53.034;18.576;2024-03-23T10:14:44;7.95;92.23
70928;SHT31;58587;53.034;18.576;2024-03-23T10:17:17;7.99;92.42
70928;SHT31;58587;53.034;18.576;2024-03-23T10:19:44;7.93;91.75
70928;SHT31;58587;53.034;18.576;2024-03-23T10:22:12;7.92;92.34
70928;SHT31;58587;53.034;18.576;2024-03-23T10:24:38;7.88;91.89
70928;SHT31;58587;53.034;18.576;2024-03-23T10:27:03;7.91;92.02
70928;SHT31;58587;53.034;18.576;2024-03-23T10:29:28;7.81;91.16
70928;SHT31;58587;53.034;18.576;2024-03-23T10:32:06;7.72;91.22
70928;SHT31;58587;53.034;18.576;2024-03-23T10:34:32;7.71;91.99
70928;SHT31;58587;53.034;18.576;2024-03-23T10:36:58;7.72;92.22
70928;SHT31;58587;53.034;18.576;2024-03-23T10:39:25;7.62;91.61
70928;SHT31;58587;53.034;18.576;2024-03-23T10:41:52;7.64;91.49
70928;SHT31;58587;53.034;18.576;2024-03-23T10:44:19;7.62;91.55
70928;SHT31;58587;53.034;18.576;2024-03-23T10:46:44;7.71;92.01
70928;SHT31;58587;53.034;18.576;2024-03-23T10:49:10;7.67;91.56
70928;SHT31;58587;53.034;18.576;2024-03-23T10:51:36;7.72;92.36
70928;SHT31;58587;53.034;18.576;2024-03-23T10:54:04;7.65;91.93
70928;SHT31;58587;53.034;18.576;2024-03-23T10:56:31;7.67;91.77
70928;SHT31;58587;53.034;18.576;2024-03-23T10:59:01;7.59;91.83
70928;SHT31;58587;53.034;18.576;2024-03-23T11:01:28;7.61;91.90
70928;SHT31;58587;53.034;18.576;2024-03-23T11:03:53;7.51;91.37
70928;SHT31;58587;53.034;18.576;2024-03-23T11:06:37;7.41;91.60
70928;SHT31;58587;53.034;18.576;2024-03-23T11:09:03;7.37;91.52
70928;SHT31;58587;53.034;18.576;2024-03-23T11:11:29;7.30;91.36
70928;SHT31;58587;53.034;18.576;2024-03-23T11:13:57;7.23;91.19
70928;SHT31;58587;53.034;18.576;2024-03-23T11:16:23;7.28;91.59
70928;SHT31;58587;53.034;18.576;2024-03-23T11:18:49;7.26;91.17
70928;SHT31;58587;53.034;18.576;2024-03-23T11:21:52;7.40;91.89
70928;SHT31;58587;53.034;18.576;2024-03-23T11:24:21;7.34;91.68
70928;SHT31;58587;53.034;18.576;2024-03-23T11:26:50;7.34;91.14
70928;SHT31;58587;53.034;18.576;2024-03-23T11:29:17;7.40;91.79
70928;SHT31;58587;53.034;18.576;2024-03-23T11:31:50;7.40;91.52
70928;SHT31;58587;53.034;18.576;2024-03-23T11:34:17;7.32;91.23
70928;SHT31;58587;53.034;18.576;2024-03-23T11:36:43;7.37;91.38
70928;SHT31;58587;53.034;18.576;2024-03-23T11:39:16;7.37;91.59
70928;SHT31;58587;53.034;18.576;2024-03-23T11:41:48;7.34;91.58
70928;SHT31;58587;53.034;18.576;2024-03-23T11:44:18;7.31;91.53
70928;SHT31;58587;53.034;18.576;2024-03-23T11:46:44;7.27;91.19
70928;SHT31;58587;53.034;18.576;2024-03-23T11:49:25;7.24;91.03
70928;SHT31;58587;53.034;18.576;2024-03-23T11:51:53;7.27;91.34
70928;SHT31;58587;53.034;18.576;2024-03-23T11:54:23;7.31;91.51
70928;SHT31;58587;53.034;18.576;2024-03-23T11:59:37;7.24;90.96
70928;SHT31;58587;53.034;18.576;2024-03-23T12:02:13;7.24;91.80
70928;SHT31;58587;53.034;18.576;2024-03-23T12:04:41;7.16;91.18
70928;SHT31;58587;53.034;18.576;2024-03-23T12:07:15;7.18;91.73
70928;SHT31;58587;53.034;18.576;2024-03-23T12:09:41;7.21;92.46
70928;SHT31;58587;53.034;18.576;2024-03-23T12:12:12;7.18;92.51
70928;SHT31;58587;53.034;18.576;2024-03-23T12:14:39;7.16;92.47
70928;SHT31;58587;53.034;18.576;2024-03-23T12:17:12;7.11;92.37
70928;SHT31;58587;53.034;18.576;2024-03-23T12:19:39;7.11;92.87
70928;SHT31;58587;53.034;18.576;2024-03-23T12:22:05;7.10;92.80
70928;SHT31;58587;53.034;18.576;2024-03-23T12:24:32;7.07;92.68
70928;SHT31;58587;53.034;18.576;2024-03-23T12:27:02;7.04;92.67
70928;SHT31;58587;53.034;18.576;2024-03-23T12:29:29;7.04;93.13
70928;SHT31;58587;53.034;18.576;2024-03-23T12:31:54;7.04;93.21
70928;SHT31;58587;53.034;18.576;2024-03-23T12:34:21;7.06;93.08
70928;SHT31;58587;53.034;18.576;2024-03-23T12:36:46;7.10;92.94
70928;SHT31;58587;53.034;18.576;2024-03-23T12:39:11;7.16;93.13
70928;SHT31;58587;53.034;18.576;2024-03-23T12:41:37;7.16;93.31
70928;SHT31;58587;53.034;18.576;2024-03-23T12:44:02;7.23;93.23
70928;SHT31;58587;53.034;18.576;2024-03-23T12:46:27;7.21;92.78
70928;SHT31;58587;53.034;18.576;2024-03-23T12:48:53;7.17;92.29
70928;SHT31;58587;53.034;18.576;2024-03-23T12:51:18;7.17;92.65
70928;SHT31;58587;53.034;18.576;2024-03-23T12:53:43;7.18;92.75
70928;SHT31;58587;53.034;18.576;2024-03-23T12:56:11;7.21;93.17
70928;SHT31;58587;53.034;18.576;2024-03-23T12:58:37;7.17;91.92
70928;SHT31;58587;53.034;18.576;2024-03-23T13:01:02;7.18;92.65
70928;SHT31;58587;53.034;18.576;2024-03-23T13:03:28;7.07;92.51
70928;SHT31;58587;53.034;18.576;2024-03-23T13:05:54;7.03;91.77
70928;SHT31;58587;53.034;18.576;2024-03-23T13:08:19;6.99;91.58
70928;SHT31;58587;53.034;18.576;2024-03-23T13:10:44;6.90;92.01
70928;SHT31;58587;53.034;18.576;2024-03-23T13:13:10;6.93;92.63
70928;SHT31;58587;53.034;18.576;2024-03-23T13:15:35;6.86;92.66
70928;SHT31;58587;53.034;18.576;2024-03-23T13:18:00;6.80;92.44
70928;SHT31;58587;53.034;18.576;2024-03-23T13:20:26;6.77;92.60
70928;SHT31;58587;53.034;18.576;2024-03-23T13:22:51;6.79;92.45
70928;SHT31;58587;53.034;18.576;2024-03-23T13:25:17;6.77;92.32
70928;SHT31;58587;53.034;18.576;2024-03-23T13:27:44;6.76;92.57
70928;SHT31;58587;53.034;18.576;2024-03-23T13:30:09;6.76;93.02
70928;SHT31;58587;53.034;18.576;2024-03-23T13:32:35;6.72;92.86
70928;SHT31;58587;53.034;18.576;2024-03-23T13:35:00;6.63;92.46
70928;SHT31;58587;53.034;18.576;2024-03-23T13:37:26;6.66;92.86
70928;SHT31;58587;53.034;18.576;2024-03-23T13:39:51;6.57;92.77
70928;SHT31;58587;53.034;18.576;2024-03-23T13:42:17;6.50;92.44
70928;SHT31;58587;53.034;18.576;2024-03-23T13:44:42;6.57;92.88
70928;SHT31;58587;53.034;18.576;2024-03-23T13:47:08;6.57;93.23
70928;SHT31;58587;53.034;18.576;2024-03-23T13:49:33;6.53;92.95
70928;SHT31;58587;53.034;18.576;2024-03-23T13:51:59;6.53;93.08
70928;SHT31;58587;53.034;18.576;2024-03-23T13:54:25;6.50;92.72
70928;SHT31;58587;53.034;18.576;2024-03-23T13:56:52;6.50;92.59
70928;SHT31;58587;53.034;18.576;2024-03-23T13:59:17;6.50;93.20
70928;SHT31;58587;53.034;18.576;2024-03-23T14:01:46;6.48;93.35
70928;SHT31;58587;53.034;18.576;2024-03-23T14:04:12;6.42;93.18
70928;SHT31;58587;53.034;18.576;2024-03-23T14:06:37;6.41;93.48
70928;SHT31;58587;53.034;18.576;2024-03-23T14:09:03;6.41;93.06
70928;SHT31;58587;53.034;18.576;2024-03-23T14:11:29;6.39;93.24
70928;SHT31;58587;53.034;18.576;2024-03-23T14:13:54;6.38;92.94
70928;SHT31;58587;53.034;18.576;2024-03-23T14:16:20;6.36;93.04
70928;SHT31;58587;53.034;18.576;2024-03-23T14:18:48;6.31;92.83
70928;SHT31;58587;53.034;18.576;2024-03-23T14:21:13;6.29;92.53
70928;SHT31;58587;53.034;18.576;2024-03-23T14:23:39;6.25;92.29
70928;SHT31;58587;53.034;18.576;2024-03-23T14:26:06;6.29;92.17
70928;SHT31;58587;53.034;18.576;2024-03-23T14:28:31;6.24;93.26
70928;SHT31;58587;53.034;18.576;2024-03-23T14:30:57;6.20;93.27
70928;SHT31;58587;53.034;18.576;2024-03-23T14:33:22;6.17;93.17
70928;SHT31;58587;53.034;18.576;2024-03-23T14:35:55;6.17;93.40
70928;SHT31;58587;53.034;18.576;2024-03-23T14:38:22;6.08;93.23
70928;SHT31;58587;53.034;18.576;2024-03-23T14:40:47;6.05;92.56
70928;SHT31;58587;53.034;18.576;2024-03-23T14:43:13;6.01;92.54
70928;SHT31;58587;53.034;18.576;2024-03-23T14:46:08;5.97;92.58
70928;SHT31;58587;53.034;18.576;2024-03-23T14:48:34;5.91;92.73
70928;SHT31;58587;53.034;18.576;2024-03-23T14:51:00;5.91;92.85
70928;SHT31;58587;53.034;18.576;2024-03-23T14:53:28;5.93;93.01
70928;SHT31;58587;53.034;18.576;2024-03-23T14:55:58;5.81;92.09
70928;SHT31;58587;53.034;18.576;2024-03-23T14:58:25;5.70;92.50
70928;SHT31;58587;53.034;18.576;2024-03-23T15:00:50;5.69;91.78
70928;SHT31;58587;53.034;18.576;2024-03-23T15:03:16;5.66;91.87
70928;SHT31;58587;53.034;18.576;2024-03-23T15:05:42;5.51;91.58
70928;SHT31;58587;53.034;18.576;2024-03-23T15:08:08;5.53;92.08
70928;SHT31;58587;53.034;18.576;2024-03-23T15:10:33;5.42;92.39
70928;SHT31;58587;53.034;18.576;2024-03-23T15:12:59;5.36;93.03
70928;SHT31;58587;53.034;18.576;2024-03-23T15:15:24;5.37;92.30
70928;SHT31;58587;53.034;18.576;2024-03-23T15:17:49;5.36;92.32
70928;SHT31;58587;53.034;18.576;2024-03-23T15:20:15;5.23;92.62
70928;SHT31;58587;53.034;18.576;2024-03-23T15:22:41;5.23;93.26
70928;SHT31;58587;53.034;18.576;2024-03-23T15:25:07;5.18;93.26
70928;SHT31;58587;53.034;18.576;2024-03-23T15:27:33;5.23;93.27
70928;SHT31;58587;53.034;18.576;2024-03-23T15:29:59;5.22;92.99
70928;SHT31;58587;53.034;18.576;2024-03-23T15:32:24;5.11;92.75
70928;SHT31;58587;53.034;18.576;2024-03-23T15:34:49;5.18;92.68
70928;SHT31;58587;53.034;18.576;2024-03-23T15:37:15;5.11;92.88
70928;SHT31;58587;53.034;18.576;2024-03-23T15:39:40;5.08;93.20
70928;SHT31;58587;53.034;18.576;2024-03-23T15:42:07;5.04;92.74
70928;SHT31;58587;53.034;18.576;2024-03-23T15:44:32;5.05;92.59
70928;SHT31;58587;53.034;18.576;2024-03-23T15:46:57;5.06;92.79
70928;SHT31;58587;53.034;18.576;2024-03-23T15:49:23;5.05;93.10
70928;SHT31;58587;53.034;18.576;2024-03-23T15:51:48;5.00;93.26
70928;SHT31;58587;53.034;18.576;2024-03-23T15:54:13;5.04;93.72
70928;SHT31;58587;53.034;18.576;2024-03-23T15:56:39;4.99;93.51
70928;SHT31;58587;53.034;18.576;2024-03-23T15:59:04;4.96;93.56
70928;SHT31;58587;53.034;18.576;2024-03-23T16:01:32;5.02;93.77
70928;SHT31;58587;53.034;18.576;2024-03-23T16:03:59;4.96;93.80
70928;SHT31;58587;53.034;18.576;2024-03-23T16:06:25;4.95;93.70
70928;SHT31;58587;53.034;18.576;2024-03-23T16:08:51;5.00;93.97
70928;SHT31;58587;53.034;18.576;2024-03-23T16:11:17;4.99;94.00
70928;SHT31;58587;53.034;18.576;2024-03-23T16:13:43;4.99;94.33
70928;SHT31;58587;53.034;18.576;2024-03-23T16:16:08;4.96;94.36
70928;SHT31;58587;53.034;18.576;2024-03-23T16:18:36;4.91;94.46
70928;SHT31;58587;53.034;18.576;2024-03-23T16:21:04;4.92;94.28
70928;SHT31;58587;53.034;18.576;2024-03-23T16:23:31;4.93;94.19